Terminal Aerodrome Forecast
Issued by NWS Melbourne, FL

Home | Current Version | Previous Version | Text Only | Print | Product List | Glossary On
Versions: 1 2 3 4 5 6 7 8 9 10 11 12 13 14 15 16
000
FTUS42 KMLB 282049 AAA
TAFVRB
TAF AMD
KVRB 282049Z 2821/2918 22013G20KT P6SM VCSH SCT035 BKN060
      TEMPO 2821/2822 6SM -SHRA BKN035
     FM290000 24009KT P6SM SCT025 SCT080 BKN250
     FM290300 23005KT P6SM SCT005 BKN250
     FM291400 23011KT P6SM VCSH SCT010 SCT025=

USA.gov is the U.S. government's official web portal to all federal, state and local government web resources and services.